• Join FlightAware (Why Join?)
  • Login
  • US Flag 
Trick or treat! (Boo!!) 
02:33AM EDT


 

Airport Tracker/Info


-or-


 

Live Flight TrackerFlight Track Log ✈ JBU732 ✈ 19-Jun-2013 ✈ TJBQ / BQN - KMCO

Flight Track Log - Related Links

Times and Time Zones

All times are in EDT time to prevent confusion due to time zone crossing. See the JBU732 flight status page for this flight to view local times or setup timezone preferences in your user account.

Time Position Orientation Groundspeed Altitude Reporting Facility
EDT Latitude Longitude Course Direction KTS MPH feet Rate Location/Type
11:26AM 18.5167 -67.1333 305° West 260 299 2,000  Level San Juan Center
11:27AM 18.5667 -67.2167 302° West 290 334 5,200 3,000 Climbing San Juan Center
11:28AM 18.7781 -67.4838 305° West  Level FlightAware Approximate
11:28AM 18.6167 -67.2833 308° West 300 345 8,100  Level San Juan Center
11:29AM 18.6833 -67.3500 317° Northwest 340 391 10,700 1,980 Climbing San Juan Center
11:30AM 18.7500 -67.4333 310° West 350 403 12,200 1,800 Climbing San Juan Center
11:31AM 18.8500 -67.5000 328° Northwest 380 437 14,400 2,460 Climbing San Juan Center
11:32AM 18.9500 -67.5500 335° Northwest 410 472 17,200 2,820 Climbing San Juan Center
11:33AM 19.0167 -67.6167 317° Northwest 360 414 20,100 2,160 Climbing San Juan Center
11:34AM 19.0833 -67.7000 310° West 340 391 21,600 960 Climbing San Juan Center
11:35AM 19.1500 -67.7833 310° West 420 483 22,100 600 Climbing San Juan Center
11:36AM 19.2167 -67.9000 301° West 420 483 22,800 900 Climbing San Juan Center
11:37AM 19.2833 -68.0000 305° West 420 483 24,000 1,260 Climbing San Juan Center
11:38AM 19.3500 -68.1167 301° West 440 506 25,400 1,140 Climbing San Juan Center
11:39AM 19.4167 -68.2167 305° West 450 518 26,300 960 Climbing San Juan Center
11:40AM 19.4667 -68.3167 298° West 460 529 27,400 960 Climbing San Juan Center
11:42AM 19.6517 -68.6325 302° West 483 556 29,800 1,080 Climbing Miami Center
11:43AM 19.7242 -68.7469 304° West 483 556 31,200 1,200 Climbing Miami Center
11:44AM 19.8036 -68.8764 303° West 477 549 32,200 900 Climbing Miami Center
11:45AM 19.8692 -68.9806 304° West 477 549 33,100 1,200 Climbing Miami Center
11:46AM 19.9372 -69.0911 303° West 471 542 34,600 1,260 Climbing Miami Center
11:47AM 20.0072 -69.2039 303° West 466 536 35,700 660 Climbing Miami Center
11:48AM 20.0750 -69.3147 303° West 460 529 36,000 120 Climbing Miami Center
11:49AM 20.1428 -69.4256 303° West 460 529 36,000 180 Level Miami Center
11:50AM 20.2128 -69.5389 303° West 460 529 36,400 960 Climbing Miami Center
11:51AM 20.2783 -69.6478 303° West 460 529 38,000 780 Climbing Miami Center
11:52AM 20.3436 -69.7550 303° West 443 510 38,000  Level Miami Center
11:53AM 20.4111 -69.8642 303° West 437 503 38,000  Level Miami Center
11:54AM 20.4764 -69.9736 302° West 442 509 38,000  Level Miami Center
11:55AM 20.5456 -70.0806 305° West 442 509 38,000  Level Miami Center
11:56AM 20.6108 -70.1925 302° West 442 509 38,000  Level Miami Center
11:57AM 20.6781 -70.3022 303° West 442 509 38,000  Level Miami Center
11:58AM 20.7431 -70.4119 302° West 442 509 38,000  Level Miami Center
11:59AM 20.8122 -70.5239 303° West 442 509 38,000  Level Miami Center
12:00PM 20.8772 -70.6364 302° West 442 509 38,000  Level Miami Center
12:01PM 20.9422 -70.7442 303° West 442 509 38,000  Level Miami Center
12:02PM 21.0089 -70.8544 303° West 441 507 38,000  Level Miami Center
12:03PM 21.0758 -70.9647 303° West 441 507 38,000  Level Miami Center
12:04PM 21.1450 -71.0864 301° West 441 507 38,000  Level Miami Center
12:05PM 21.2097 -71.1992 302° West 441 507 38,000  Level Miami Center
12:06PM 21.2764 -71.3142 302° West 441 507 38,000  Level Miami Center
12:07PM 21.3431 -71.4250 303° West 441 507 38,000  Level Miami Center
12:08PM 21.4114 -71.5336 304° West 441 507 38,000  Level Miami Center
12:09PM 21.4756 -71.6425 302° West 441 507 38,000  Level Miami Center
12:10PM 21.5400 -71.7561 301° West 441 507 38,000  Level Miami Center
12:11PM 21.6061 -71.8650 303° West 441 507 38,000  Level Miami Center
12:12PM 21.6681 -71.9742 301° West 436 502 38,000  Level Miami Center
12:13PM 21.7342 -72.0836 303° West 436 502 38,000  Level Miami Center
12:14PM 21.8003 -72.1953 303° West 436 502 38,000  Level Miami Center
12:15PM 21.8642 -72.3092 301° West 441 507 38,000  Level Miami Center
12:16PM 21.9281 -72.4189 302° West 441 507 38,000  Level Miami Center
12:17PM 21.9939 -72.5308 302° West 441 507 38,000  Level Miami Center
12:18PM 22.0553 -72.6428 301° West 441 507 38,000  Level Miami Center
12:19PM 22.1144 -72.7397 303° West 441 507 38,000  Level Miami Center
12:20PM 22.1781 -72.8519 301° West 441 507 38,000  Level Miami Center
12:21PM 22.2414 -72.9644 301° West 441 507 38,000  Level Miami Center
12:22PM 22.3050 -73.0792 301° West 441 507 38,000  Level Miami Center
12:23PM 22.3703 -73.1894 303° West 441 507 38,000  Level Miami Center
12:24PM 22.4356 -73.3022 302° West 441 507 38,000  Level Miami Center
12:25PM 22.4986 -73.4128 302° West 441 507 38,000  Level Miami Center
12:26PM 22.5575 -73.5239 300° West 435 501 38,000  Level Miami Center
12:27PM 22.6186 -73.6369 300° West 435 501 38,000  Level Miami Center
12:28PM 22.6794 -73.7525 300° West 441 507 38,000  Level Miami Center
12:29PM 22.7464 -73.8633 303° West 441 507 38,000  Level Miami Center
12:30PM 22.8133 -73.9744 303° West 436 502 38,000  Level Miami Center
12:31PM 22.8739 -74.0903 300° West 442 509 38,000  Level Miami Center
12:32PM 22.9386 -74.2039 302° West 442 509 38,000  Level Miami Center
12:33PM 23.0033 -74.3200 301° West 442 509 38,000  Level Miami Center
12:34PM 23.0658 -74.4361 300° West 442 509 38,000  Level Miami Center
12:35PM 23.1303 -74.5478 302° West 442 509 38,000  Level Miami Center
12:36PM 23.1925 -74.6642 300° West 442 509 38,000  Level Miami Center
12:37PM 23.2592 -74.7808 302° West 442 509 38,000  Level Miami Center
12:38PM 23.3253 -74.8950 302° West 442 509 38,000  Level Miami Center
12:39PM 23.3894 -75.0117 301° West 442 509 38,000  Level Miami Center
12:40PM 23.4536 -75.1286 301° West 442 509 38,000  Level Miami Center
12:41PM 23.5175 -75.2433 301° West 442 509 38,000  Level Miami Center
12:42PM 23.5814 -75.3603 301° West 442 509 38,000  Level Miami Center
12:43PM 23.6475 -75.4775 302° West 442 509 38,000  Level Miami Center
12:44PM 23.7133 -75.5994 301° West 447 514 38,000  Level Miami Center
12:45PM 23.7769 -75.7167 301° West 452 520 38,000  Level Miami Center
12:46PM 23.8425 -75.8389 300° West 458 527 38,000  Level Miami Center
12:47PM 23.9039 -75.9589 299° West 458 527 38,000  Level Miami Center
12:48PM 23.9694 -76.0789 301° West 458 527 38,000  Level Miami Center
12:49PM 24.0328 -76.1967 301° West 458 527 38,000  Level Miami Center
12:50PM 24.0981 -76.3169 301° West 458 527 38,000  Level Miami Center
12:51PM 24.1611 -76.4375 300° West 458 527 38,000  Level Miami Center
12:52PM 24.2219 -76.5558 299° West 458 527 38,000  Level Miami Center
12:53PM 24.2892 -76.6811 301° West 447 514 38,000  Level Miami Center
12:54PM 24.3539 -76.7994 301° West 447 514 38,000  Level Miami Center
12:55PM 24.4167 -76.9181 300° West 447 514 38,000  Level Miami Center
12:56PM 24.4708 -77.0233 299° West 441 507 38,000  Level Miami Center
12:57PM 24.5314 -77.1419 299° West 441 507 38,000  Level Miami Center
12:58PM 24.5981 -77.2611 302° West 446 513 38,000  Level Miami Center
12:59PM 24.6583 -77.3847 298° West 446 513 38,000  Level Miami Center
01:00PM 24.7206 -77.5039 300° West 446 513 38,000  Level Miami Center
01:01PM 24.7825 -77.6281 299° West 451 519 38,000  Level Miami Center
01:02PM 24.8444 -77.7497 299° West 451 519 38,000  Level Miami Center
01:03PM 24.9086 -77.8692 301° West 457 526 38,000  Level Miami Center
01:04PM 24.9747 -77.9889 301° West 457 526 38,000  Level Miami Center
01:05PM 25.0364 -78.1089 300° West 457 526 38,000  Level Miami Center
01:06PM 25.0981 -78.2311 299° West 457 526 38,000  Level Miami Center
01:07PM 25.1617 -78.3511 300° West 462 532 38,000  Level Miami Center
01:08PM 25.2231 -78.4714 299° West 462 532 38,000  Level Miami Center
01:09PM 25.2822 -78.5917 299° West 462 532 38,000  Level Miami Center
01:10PM 25.3456 -78.7122 300° West 457 526 38,000  Level Miami Center
01:11PM 25.4067 -78.8328 299° West 452 520 38,000  Level Miami Center
01:12PM 25.4697 -78.9625 298° West 446 513 38,000 -60 Level Miami Center
01:13PM 25.5267 -79.0650 302° West 441 507 37,900  Descending Miami Center
01:14PM 25.5875 -79.1858 299° West 441 507 38,000  Climbing Miami Center
01:15PM 25.6483 -79.3092 299° West 446 513 38,000 -300 Level Miami Center
01:16PM 25.7089 -79.4281 299° West 446 513 37,500 -780 Descending Miami Center
01:17PM 25.7672 -79.5492 298° West 446 513 36,500 -1,020 Descending Miami Center
01:18PM 25.8297 -79.6706 300° West 452 520 35,500 -960 Descending Miami Center
01:19PM 25.8922 -79.7944 299° West 452 520 34,600 -960 Descending Miami Center
01:20PM 25.9542 -79.9231 298° West 463 533 33,600 -1,140 Descending Miami Center
01:21PM 26.0206 -80.0428 302° West 469 540 32,400 -1,800 Descending Miami Center
01:22PM 26.1058 -80.1514 311° West 469 540 30,100 -1,260 Descending Miami Center
01:23PM 26.2106 -80.2353 324° Northwest 459 528 29,900 -1,440 Descending Miami Center
01:24PM 26.3261 -80.2967 335° Northwest 459 528 27,300 -2,220 Descending Miami Center
01:25PM 26.4375 -80.3578 334° Northwest 454 522 25,500 -2,040 Descending Miami Center
01:26PM 26.5492 -80.4053 339° North 441 507 23,300 -2,100 Descending Miami Center
01:27PM 26.6564 -80.4550 337° Northwest 425 489 21,400 -2,100 Descending Miami Center
01:28PM 26.7683 -80.4933 343° North 400 460 19,200 -2,100 Descending Miami Center
01:29PM 26.8592 -80.5264 342° North 386 444 17,200 -1,140 Descending Miami Center
01:30PM 26.9519 -80.5783 333° Northwest 371 427 17,000 -120 Descending Miami Center
01:31PM 27.0547 -80.6375 333° Northwest 376 433 17,000  Level Miami Center
01:32PM 27.1453 -80.6917 332° Northwest 376 433 17,000  Level Miami Center
01:33PM 27.2397 -80.7461 333° Northwest 371 427 17,000  Level Miami Center
01:34PM 27.3300 -80.8053 330° Northwest 371 427 17,000  Level Miami Center
01:35PM 27.4292 -80.8508 338° Northwest 371 427 17,000 -540 Level Miami Center
01:36PM 27.5258 -80.9011 335° Northwest 371 427 16,000 -1,200 Descending Miami Center
01:37PM 27.6206 -80.9489 336° Northwest 383 441 14,700 -1,200 Descending Miami Center
01:38PM 27.7150 -80.9969 336° Northwest 370 426 13,700 -1,080 Descending Miami Center
01:40PM 27.8833 -81.0833 336° Northwest 354 407 11,800 -1,020 Descending Orlando TRACON
01:41PM 27.9667 -81.1167 341° North 354 407 11,000 -480 Descending Orlando TRACON
01:42PM 28.0500 -81.1500 341° North 345 397 11,000 -540 Level Orlando TRACON
01:43PM 28.1500 -81.1667 352° North 297 342 10,000 -960 Descending Orlando TRACON
01:44PM 28.2333 -81.1833 350° North 296 341 9,000 -540 Descending Orlando TRACON
01:45PM 28.3000 -81.1833 360° North 245 282 9,000  Level Orlando TRACON
01:46PM 28.3667 -81.1833 360° North 249 287 9,000 -780 Level Orlando TRACON
01:47PM 28.4500 -81.1833 360° North 246 283 7,400 -1,680 Descending Orlando TRACON
01:48PM 28.5000 -81.2000 344° North 233 268 5,700 -1,980 Descending Orlando TRACON
01:49PM 28.5500 -81.2500 319° Northwest 203 234 3,500 -1,560 Descending Orlando TRACON
01:50PM 28.5500 -81.3000 270° West 185 213 2,500 -900 Descending Orlando TRACON
01:51PM 28.5333 -81.3167 221° Southwest 162 186 1,800 -900 Descending Orlando TRACON
01:52PM 28.4833 -81.3167 180° South 147 169 700 -1,020 Descending Orlando TRACON